createdAt,value
2022-11-29T00:01:45.018Z,16.88
2022-11-29T00:04:13.913Z,17.10
2022-11-29T00:06:42.748Z,15.57
2022-11-29T00:09:14.306Z,17.65
2022-11-29T00:12:01.972Z,14.57
2022-11-29T00:14:31.331Z,15.95
2022-11-29T00:17:05.208Z,15.23
2022-11-29T00:19:35.891Z,16.42
2022-11-29T00:22:05.671Z,14.82
2022-11-29T00:24:35.625Z,18.33
2022-11-29T00:27:04.477Z,15.05
2022-11-29T00:29:34.951Z,14.95
2022-11-29T00:32:04.490Z,15.00
2022-11-29T00:34:33.236Z,20.17
2022-11-29T00:37:02.071Z,18.02
2022-11-29T00:39:31.495Z,17.67
2022-11-29T00:42:00.088Z,17.27
2022-11-29T00:44:28.806Z,18.98
2022-11-29T00:46:57.813Z,17.83
2022-11-29T00:49:26.804Z,20.33
2022-11-29T00:51:55.369Z,22.13
2022-11-29T00:54:24.456Z,20.27
2022-11-29T00:56:53.797Z,20.00
2022-11-29T00:59:23.194Z,19.27
2022-11-29T01:01:52.170Z,17.40
2022-11-29T01:04:21.108Z,17.60
2022-11-29T01:06:54.262Z,16.02
2022-11-29T01:09:23.231Z,16.52
2022-11-29T01:11:52.128Z,16.50
2022-11-29T01:14:21.195Z,18.08
2022-11-29T01:16:49.861Z,21.67
2022-11-29T01:19:18.845Z,18.20
2022-11-29T01:21:48.619Z,13.98
2022-11-29T01:24:17.616Z,16.17
2022-11-29T01:26:46.597Z,17.25
2022-11-29T01:29:16.439Z,16.17
2022-11-29T01:31:45.114Z,16.63
2022-11-29T01:34:14.010Z,15.32
2022-11-29T01:36:42.724Z,14.75
2022-11-29T01:39:11.926Z,15.13
2022-11-29T01:41:40.724Z,15.88
2022-11-29T01:44:15.536Z,14.27
2022-11-29T01:46:47.359Z,13.73
2022-11-29T01:49:30.328Z,15.15
2022-11-29T01:52:07.832Z,14.52
2022-11-29T01:54:41.177Z,14.63
2022-11-29T01:57:10.990Z,13.15
2022-11-29T01:59:45.001Z,13.63
2022-11-29T02:02:35.411Z,14.13
2022-11-29T02:05:06.322Z,16.33
2022-11-29T02:07:35.367Z,15.93
2022-11-29T02:10:05.546Z,16.67
2022-11-29T02:12:39.501Z,17.13
2022-11-29T02:15:32.725Z,18.65
2022-11-29T02:18:22.257Z,17.77
2022-11-29T02:21:29.190Z,14.98
2022-11-29T02:24:54.845Z,14.38
2022-11-29T02:27:35.350Z,14.63
2022-11-29T02:30:34.576Z,14.88
2022-11-29T02:33:24.642Z,14.15
2022-11-29T02:36:22.972Z,18.20
2022-11-29T02:39:15.368Z,13.10
2022-11-29T02:42:31.510Z,15.55
2022-11-29T02:45:15.671Z,14.45
2022-11-29T02:48:11.781Z,20.07
2022-11-29T02:50:51.184Z,17.33
2022-11-29T02:53:52.405Z,14.33
2022-11-29T02:56:42.719Z,15.32
2022-11-29T02:59:22.528Z,16.47
2022-11-29T03:02:19.570Z,13.88
2022-11-29T03:04:59.791Z,14.40
2022-11-29T03:07:52.083Z,15.77
2022-11-29T03:10:32.737Z,15.77
2022-11-29T03:13:06.584Z,16.20
2022-11-29T03:15:39.880Z,16.83
2022-11-29T03:18:09.599Z,15.73
2022-11-29T03:20:53.382Z,13.52
2022-11-29T03:23:46.136Z,15.13
2022-11-29T03:26:17.684Z,15.05
2022-11-29T03:29:08.714Z,15.90
2022-11-29T03:31:52.562Z,13.35
2022-11-29T03:34:33.312Z,18.88
2022-11-29T03:37:26.988Z,15.85
2022-11-29T03:40:11.860Z,14.50
2022-11-29T03:42:52.124Z,15.50
2022-11-29T03:45:39.418Z,14.18
2022-11-29T03:48:18.930Z,14.70
2022-11-29T03:50:55.909Z,14.13
2022-11-29T03:53:49.301Z,15.37
2022-11-29T03:56:30.045Z,13.82
2022-11-29T03:59:26.477Z,13.43
2022-11-29T04:02:13.456Z,14.52
2022-11-29T04:05:09.736Z,12.52
2022-11-29T04:07:53.693Z,13.77
2022-11-29T04:10:46.893Z,16.48
2022-11-29T04:13:43.011Z,17.50
2022-11-29T04:16:33.795Z,21.25
2022-11-29T04:19:39.290Z,19.88
2022-11-29T04:22:44.614Z,19.88
2022-11-29T04:25:19.457Z,20.38
2022-11-29T04:27:55.773Z,20.85
2022-11-29T04:30:26.702Z,19.83
2022-11-29T04:33:08.575Z,21.42
2022-11-29T04:35:40.622Z,19.80
2022-11-29T04:38:44.335Z,19.77
2022-11-29T04:41:46.460Z,22.77
2022-11-29T04:44:24.367Z,19.48
2022-11-29T04:47:35.295Z,19.05
2022-11-29T04:50:25.230Z,19.98
2022-11-29T04:53:25.679Z,20.42
2022-11-29T04:55:58.367Z,20.83
2022-11-29T04:58:36.647Z,18.73
2022-11-29T05:01:31.685Z,19.25
2022-11-29T05:04:23.419Z,18.30
2022-11-29T05:07:20.988Z,18.60
2022-11-29T05:10:00.646Z,15.32
2022-11-29T05:12:59.707Z,12.00
2022-11-29T05:16:05.754Z,13.50
2022-11-29T05:18:50.334Z,14.38
2022-11-29T05:21:40.186Z,12.00
2022-11-29T05:24:33.888Z,14.57
2022-11-29T05:27:23.629Z,12.15
2022-11-29T05:30:13.225Z,13.25
2022-11-29T05:33:00.754Z,13.55
2022-11-29T05:35:48.980Z,13.02
2022-11-29T05:38:46.229Z,12.27
2022-11-29T05:41:46.317Z,13.00
2022-11-29T05:44:41.549Z,12.70
2022-11-29T05:47:12.452Z,15.55
2022-11-29T05:50:08.252Z,13.13
2022-11-29T05:52:54.777Z,12.00
2022-11-29T05:56:14.622Z,14.45
2022-11-29T05:58:52.185Z,14.65
2022-11-29T06:01:25.876Z,12.15
2022-11-29T06:04:13.205Z,13.60
2022-11-29T06:07:24.777Z,11.77
2022-11-29T06:10:07.946Z,11.45
2022-11-29T06:12:37.274Z,11.45
2022-11-29T06:15:41.859Z,11.60
2022-11-29T06:18:17.527Z,11.00
2022-11-29T06:21:01.580Z,9.93
2022-11-29T06:24:08.910Z,12.20
2022-11-29T06:27:10.875Z,11.23
2022-11-29T06:29:52.023Z,31.70
2022-11-29T06:32:57.795Z,18.08
2022-11-29T06:35:48.486Z,13.43
2022-11-29T06:38:28.203Z,11.70
2022-11-29T06:41:02.339Z,11.07
2022-11-29T06:43:32.635Z,8.65
2022-11-29T06:46:14.493Z,9.88
2022-11-29T06:49:15.782Z,18.83
2022-11-29T06:52:09.069Z,16.65
2022-11-29T06:55:02.300Z,18.00
2022-11-29T06:58:00.574Z,13.10
2022-11-29T07:00:48.757Z,12.15
2022-11-29T07:03:33.299Z,14.32
2022-11-29T07:06:12.966Z,10.43
2022-11-29T07:08:42.483Z,11.35
2022-11-29T07:11:15.390Z,11.23
2022-11-29T07:13:44.850Z,8.65
2022-11-29T07:16:36.492Z,8.68
2022-11-29T07:19:20.091Z,10.07
2022-11-29T07:22:06.266Z,10.75
2022-11-29T07:24:59.961Z,10.60
2022-11-29T07:27:42.739Z,10.17
2022-11-29T07:30:17.454Z,10.38
2022-11-29T07:33:00.324Z,11.00
2022-11-29T07:35:50.566Z,9.93
2022-11-29T07:38:32.074Z,10.43
2022-11-29T07:41:07.067Z,11.68
2022-11-29T07:43:42.062Z,9.90
2022-11-29T07:46:11.452Z,8.00
2022-11-29T07:48:40.066Z,8.73
2022-11-29T07:51:09.154Z,9.00
2022-11-29T07:53:43.410Z,8.65
2022-11-29T07:56:13.412Z,11.45
2022-11-29T07:58:42.178Z,10.90
2022-11-29T08:01:11.455Z,11.70
2022-11-29T08:03:42.128Z,11.90
2022-11-29T08:06:11.274Z,10.45
2022-11-29T08:08:43.997Z,11.98
2022-11-29T08:14:01.987Z,11.05
2022-11-29T08:16:31.154Z,13.57
2022-11-29T08:18:59.921Z,12.20
2022-11-29T08:21:29.526Z,12.65
2022-11-29T08:23:58.339Z,13.38
2022-11-29T08:26:31.384Z,12.10
2022-11-29T08:29:00.871Z,12.90
2022-11-29T08:31:29.541Z,11.75
2022-11-29T08:33:58.590Z,10.88
2022-11-29T08:36:27.549Z,11.18
2022-11-29T08:39:07.538Z,12.25
2022-11-29T08:41:37.983Z,12.13
2022-11-29T08:44:07.589Z,10.55
2022-11-29T08:46:54.758Z,14.02
2022-11-29T08:49:24.086Z,11.48
2022-11-29T08:52:14.426Z,12.57
2022-11-29T08:54:44.183Z,11.45
2022-11-29T09:00:02.095Z,12.63
2022-11-29T09:02:30.779Z,12.63
2022-11-29T09:04:59.607Z,12.43
2022-11-29T09:07:28.370Z,12.73
2022-11-29T09:09:57.248Z,11.50
2022-11-29T09:12:26.203Z,12.30
2022-11-29T09:14:55.099Z,11.60
2022-11-29T09:17:23.768Z,13.55
2022-11-29T09:19:52.558Z,13.37
2022-11-29T09:22:21.393Z,13.88
2022-11-29T09:24:50.265Z,11.23
2022-11-29T09:27:18.968Z,12.95
2022-11-29T09:29:48.770Z,12.23
2022-11-29T09:32:17.609Z,14.38
2022-11-29T09:34:46.916Z,12.93
2022-11-29T09:37:16.006Z,14.32
2022-11-29T09:39:44.925Z,14.50
2022-11-29T09:42:55.605Z,16.17
2022-11-29T09:45:44.327Z,14.80
2022-11-29T09:48:16.104Z,12.57
2022-11-29T09:50:59.765Z,13.70
2022-11-29T09:53:55.725Z,11.73
2022-11-29T09:56:44.760Z,12.77
2022-11-29T09:59:24.635Z,12.82
2022-11-29T10:02:21.040Z,12.20
2022-11-29T10:04:56.487Z,12.60
2022-11-29T10:07:39.464Z,12.93
2022-11-29T10:10:12.744Z,12.30
2022-11-29T10:12:47.867Z,12.30
2022-11-29T10:15:26.895Z,12.90
2022-11-29T10:18:45.170Z,12.10
2022-11-29T10:21:21.651Z,11.73
2022-11-29T10:23:59.278Z,11.73
2022-11-29T10:26:34.853Z,11.27
2022-11-29T10:29:04.428Z,11.77
2022-11-29T10:31:44.247Z,13.77
2022-11-29T10:34:15.877Z,13.18
2022-11-29T10:36:49.722Z,15.10
2022-11-29T10:40:05.165Z,11.07
2022-11-29T10:42:50.142Z,12.88
2022-11-29T10:46:01.037Z,13.30
2022-11-29T10:48:34.509Z,12.07
2022-11-29T10:51:04.362Z,14.25
2022-11-29T10:53:37.976Z,11.88
2022-11-29T10:56:15.299Z,12.65
2022-11-29T10:59:21.301Z,13.05
2022-11-29T11:01:50.424Z,14.98
2022-11-29T11:04:28.984Z,13.23
2022-11-29T11:07:02.140Z,13.17
2022-11-29T11:09:43.268Z,13.27
2022-11-29T11:12:21.992Z,14.50
2022-11-29T11:14:52.437Z,15.70
2022-11-29T11:17:26.982Z,24.33
2022-11-29T11:20:03.201Z,31.88
2022-11-29T11:22:33.905Z,26.53
2022-11-29T11:25:07.426Z,20.45
2022-11-29T11:27:41.180Z,17.60
2022-11-29T11:30:24.500Z,18.30
2022-11-29T11:33:09.522Z,15.07
2022-11-29T11:35:38.785Z,17.67
2022-11-29T11:38:16.074Z,20.00
2022-11-29T11:40:46.113Z,13.68
2022-11-29T11:43:21.400Z,15.20
2022-11-29T11:45:55.786Z,15.02
2022-11-29T11:48:25.390Z,18.70
2022-11-29T11:51:00.596Z,14.68
2022-11-29T11:53:36.725Z,14.60
2022-11-29T11:56:09.506Z,18.80
2022-11-29T11:58:52.948Z,13.40
2022-11-29T12:01:26.777Z,19.13
2022-11-29T12:04:07.669Z,14.07
2022-11-29T12:06:53.508Z,14.40
2022-11-29T12:09:48.538Z,18.58
2022-11-29T12:12:24.555Z,20.90
2022-11-29T12:15:00.115Z,16.90
2022-11-29T12:17:29.059Z,18.77
2022-11-29T12:20:23.505Z,15.20
2022-11-29T12:23:11.964Z,17.50
2022-11-29T12:26:01.820Z,16.63
2022-11-29T12:28:36.957Z,16.60
2022-11-29T12:31:38.746Z,18.67
2022-11-29T12:34:35.852Z,13.80
2022-11-29T12:37:23.582Z,18.75
2022-11-29T12:40:38.382Z,16.60
2022-11-29T12:43:19.192Z,16.15
2022-11-29T12:46:32.048Z,14.53
2022-11-29T12:49:19.661Z,13.00
2022-11-29T12:52:10.302Z,12.40
2022-11-29T12:55:17.008Z,15.15
2022-11-29T12:57:54.962Z,15.57
2022-11-29T13:01:01.268Z,13.90
2022-11-29T13:04:01.341Z,17.15
2022-11-29T13:06:43.661Z,15.30
2022-11-29T13:09:47.238Z,13.52
2022-11-29T13:12:42.002Z,13.55
2022-11-29T13:16:07.854Z,12.70
2022-11-29T13:18:51.428Z,13.48
2022-11-29T13:21:36.107Z,14.93
2022-11-29T13:24:13.422Z,13.65
2022-11-29T13:26:45.129Z,12.77
2022-11-29T13:29:18.039Z,14.45
2022-11-29T13:31:49.100Z,13.30
2022-11-29T13:34:50.187Z,13.32
2022-11-29T13:37:28.703Z,13.63
2022-11-29T13:40:39.340Z,13.40
2022-11-29T13:43:19.001Z,17.20
2022-11-29T13:45:53.606Z,26.85
2022-11-29T13:48:51.661Z,38.40
2022-11-29T13:51:38.841Z,40.67
2022-11-29T13:54:47.569Z,43.97
2022-11-29T13:57:17.961Z,51.42
2022-11-29T13:59:53.300Z,46.65
2022-11-29T14:02:30.623Z,43.33
2022-11-29T14:05:06.329Z,41.15
2022-11-29T14:07:37.524Z,36.17
2022-11-29T14:10:29.118Z,34.40
2022-11-29T14:13:02.733Z,28.25
2022-11-29T14:15:34.218Z,25.25
2022-11-29T14:18:10.774Z,23.23
2022-11-29T14:20:46.598Z,22.38
2022-11-29T14:23:17.633Z,23.38
2022-11-29T14:25:58.582Z,20.63
2022-11-29T14:28:32.889Z,21.67
2022-11-29T14:31:03.163Z,19.50
2022-11-29T14:34:09.878Z,20.42
2022-11-29T14:37:09.382Z,18.52
2022-11-29T14:39:50.961Z,20.83
2022-11-29T14:42:48.742Z,17.25
2022-11-29T14:45:41.002Z,19.23
2022-11-29T14:48:33.249Z,22.33
2022-11-29T14:51:32.682Z,27.30
2022-11-29T14:54:08.161Z,24.55
2022-11-29T14:56:43.963Z,27.00
2022-11-29T14:59:41.964Z,26.50
2022-11-29T15:02:35.701Z,21.95
2022-11-29T15:05:45.052Z,20.60
2022-11-29T15:08:45.707Z,23.83
2022-11-29T15:11:37.092Z,20.65
2022-11-29T15:14:46.681Z,19.23
2022-11-29T15:18:02.120Z,21.38
2022-11-29T15:20:59.122Z,24.83
2022-11-29T15:23:34.433Z,23.10
2022-11-29T15:26:03.622Z,24.13
2022-11-29T15:28:39.492Z,24.75
2022-11-29T15:31:21.543Z,26.33
2022-11-29T15:33:56.825Z,21.40
2022-11-29T15:36:29.206Z,20.67
2022-11-29T15:39:01.544Z,25.08
2022-11-29T15:41:42.773Z,22.48
2022-11-29T15:44:24.383Z,22.70
2022-11-29T15:47:28.771Z,18.25
2022-11-29T15:50:17.713Z,19.92
2022-11-29T15:52:48.824Z,20.13
2022-11-29T15:55:24.962Z,21.30
2022-11-29T15:58:07.047Z,20.58
2022-11-29T16:00:38.548Z,17.55
2022-11-29T16:03:21.946Z,18.50
2022-11-29T16:05:57.260Z,18.60
2022-11-29T16:08:31.067Z,18.13
2022-11-29T16:11:01.558Z,18.67
2022-11-29T16:13:36.214Z,17.98
2022-11-29T16:16:18.767Z,18.17
2022-11-29T16:18:50.548Z,20.27
2022-11-29T16:21:27.035Z,18.42
2022-11-29T16:23:57.956Z,16.70
2022-11-29T16:26:33.703Z,17.42
2022-11-29T16:29:11.984Z,17.13
2022-11-29T16:31:42.858Z,17.77
2022-11-29T16:34:32.983Z,17.38
2022-11-29T16:37:05.905Z,20.88
2022-11-29T16:39:49.637Z,19.70
2022-11-29T16:42:28.390Z,18.63
2022-11-29T16:45:28.214Z,19.70
2022-11-29T16:48:01.567Z,19.03
2022-11-29T16:50:34.343Z,21.58
2022-11-29T16:53:37.305Z,19.92
2022-11-29T16:56:09.783Z,18.58
2022-11-29T16:59:16.596Z,18.75
2022-11-29T17:01:32.464Z,20.15
2022-11-29T17:04:05.170Z,20.67
2022-11-29T17:06:36.845Z,27.02
2022-11-29T17:09:06.977Z,20.73
2022-11-29T17:11:36.097Z,22.48
2022-11-29T17:14:05.302Z,28.02
2022-11-29T17:16:34.375Z,38.40
2022-11-29T17:19:03.383Z,31.52
2022-11-29T17:21:33.288Z,31.63
2022-11-29T17:24:02.440Z,42.03
2022-11-29T17:26:31.353Z,33.78
2022-11-29T17:29:00.604Z,35.67
2022-11-29T17:31:30.853Z,34.55
2022-11-29T17:34:01.808Z,55.00
2022-11-29T17:36:31.668Z,59.28
2022-11-29T17:39:01.629Z,28.50
2022-11-29T17:41:33.875Z,23.20
2022-11-29T17:44:03.384Z,16.08
2022-11-29T17:46:35.627Z,15.85
2022-11-29T17:49:09.087Z,13.30
2022-11-29T17:51:56.992Z,13.55
2022-11-29T17:54:26.933Z,15.43
2022-11-29T17:56:57.403Z,45.60
2022-11-29T17:59:26.562Z,42.20
2022-11-29T18:01:56.024Z,44.33
2022-11-29T18:04:25.606Z,21.42
2022-11-29T18:06:55.676Z,15.65
2022-11-29T18:09:24.815Z,15.60
2022-11-29T18:11:56.157Z,15.55
2022-11-29T18:14:29.235Z,14.83
2022-11-29T18:16:58.429Z,17.48
2022-11-29T18:19:27.319Z,18.75
2022-11-29T18:21:57.039Z,19.90
2022-11-29T18:24:28.522Z,21.35
2022-11-29T18:26:57.685Z,19.52
2022-11-29T18:29:26.693Z,23.48
2022-11-29T18:31:56.916Z,23.97
2022-11-29T18:34:25.759Z,18.55
2022-11-29T18:36:55.010Z,15.57
2022-11-29T18:39:26.196Z,16.75
2022-11-29T18:41:55.850Z,14.10
2022-11-29T18:44:31.724Z,19.95
2022-11-29T18:47:02.822Z,22.42
2022-11-29T18:49:31.984Z,22.13
2022-11-29T18:52:00.782Z,20.75
2022-11-29T18:54:31.904Z,20.00
2022-11-29T18:57:01.038Z,16.27
2022-11-29T18:59:29.871Z,14.38
2022-11-29T19:01:59.062Z,11.73
2022-11-29T19:04:27.982Z,11.82
2022-11-29T19:06:57.052Z,13.20
2022-11-29T19:09:26.050Z,14.48
2022-11-29T19:11:55.230Z,17.07
2022-11-29T19:14:25.414Z,15.20
2022-11-29T19:16:54.454Z,17.60
2022-11-29T19:19:26.355Z,19.00
2022-11-29T19:21:55.655Z,19.00
2022-11-29T19:24:27.997Z,18.52
2022-11-29T19:26:59.008Z,18.55
2022-11-29T19:29:28.496Z,20.70
2022-11-29T19:31:58.196Z,19.17
2022-11-29T19:34:29.393Z,20.98
2022-11-29T19:36:58.519Z,18.20
2022-11-29T19:39:28.678Z,18.92
2022-11-29T19:41:59.368Z,19.17
2022-11-29T19:44:30.046Z,18.50
2022-11-29T19:46:59.244Z,19.13
2022-11-29T19:49:28.266Z,19.23
2022-11-29T19:51:57.194Z,22.98
2022-11-29T19:54:25.930Z,20.07
2022-11-29T19:56:56.611Z,18.38
2022-11-29T19:59:25.923Z,18.17
2022-11-29T20:01:54.893Z,16.63
2022-11-29T20:04:23.737Z,19.48
2022-11-29T20:06:52.934Z,20.90
2022-11-29T20:09:23.273Z,16.45
2022-11-29T20:11:52.899Z,19.63
2022-11-29T20:14:21.588Z,19.00
2022-11-29T20:16:51.766Z,18.73
2022-11-29T20:19:20.713Z,17.77
2022-11-29T20:21:50.520Z,18.90
2022-11-29T20:24:20.385Z,18.83
2022-11-29T20:26:50.347Z,15.88
2022-11-29T20:29:20.304Z,18.08
2022-11-29T20:31:50.928Z,17.65
2022-11-29T20:34:20.943Z,16.93
2022-11-29T20:37:26.324Z,17.47
2022-11-29T20:40:02.635Z,19.25
2022-11-29T20:42:40.480Z,18.08
2022-11-29T20:45:14.887Z,17.13
2022-11-29T20:47:59.001Z,16.42
2022-11-29T20:50:31.381Z,14.43
2022-11-29T20:53:03.367Z,13.85
2022-11-29T20:55:32.359Z,13.82
2022-11-29T20:58:01.167Z,12.10
2022-11-29T21:00:30.179Z,11.60
2022-11-29T21:02:58.955Z,11.98
2022-11-29T21:05:29.057Z,12.60
2022-11-29T21:07:58.974Z,11.27
2022-11-29T21:10:27.873Z,11.67
2022-11-29T21:12:57.573Z,13.80
2022-11-29T21:15:26.848Z,16.15
2022-11-29T21:17:55.964Z,13.50
2022-11-29T21:20:26.973Z,12.53
2022-11-29T21:23:12.755Z,15.30
2022-11-29T21:26:15.994Z,13.43
2022-11-29T21:28:58.887Z,13.77
2022-11-29T21:31:28.818Z,12.15
2022-11-29T21:33:57.787Z,13.15
2022-11-29T21:36:26.730Z,12.53
2022-11-29T21:38:55.735Z,12.82
2022-11-29T21:41:26.022Z,13.32
2022-11-29T21:44:09.734Z,13.55
2022-11-29T21:46:39.010Z,11.63
2022-11-29T21:49:07.967Z,12.50
2022-11-29T21:51:36.954Z,10.55
2022-11-29T21:54:06.045Z,11.25
2022-11-29T21:56:34.939Z,11.40
2022-11-29T21:59:03.566Z,10.63
2022-11-29T22:01:34.612Z,10.77
2022-11-29T22:04:04.524Z,11.07
2022-11-29T22:06:33.403Z,10.77
2022-11-29T22:09:02.922Z,12.20
2022-11-29T22:11:32.382Z,13.63
2022-11-29T22:14:15.398Z,13.23
2022-11-29T22:16:53.129Z,13.52
2022-11-29T22:19:24.545Z,12.80
2022-11-29T22:21:56.396Z,13.55
2022-11-29T22:24:28.218Z,14.73
2022-11-29T22:26:57.818Z,12.80
2022-11-29T22:29:27.305Z,14.35
2022-11-29T22:31:58.141Z,14.25
2022-11-29T22:34:28.571Z,14.85
2022-11-29T22:36:57.458Z,14.45
2022-11-29T22:39:26.606Z,14.65
2022-11-29T22:41:55.636Z,12.67
2022-11-29T22:44:25.469Z,13.07
2022-11-29T22:46:54.442Z,12.30
2022-11-29T22:49:23.396Z,13.98
2022-11-29T22:51:53.205Z,12.60
2022-11-29T22:54:22.367Z,13.63
2022-11-29T22:56:51.118Z,13.25
2022-11-29T22:59:19.847Z,12.68
2022-11-29T23:01:48.953Z,12.20
2022-11-29T23:04:17.737Z,12.63
2022-11-29T23:06:47.919Z,11.13
2022-11-29T23:09:22.428Z,12.27
2022-11-29T23:11:57.051Z,10.35
2022-11-29T23:14:26.290Z,12.43
2022-11-29T23:16:55.205Z,12.15
2022-11-29T23:19:24.016Z,11.63
2022-11-29T23:21:52.941Z,10.45
2022-11-29T23:24:21.751Z,9.73
2022-11-29T23:26:50.431Z,10.95
2022-11-29T23:29:20.842Z,11.40
2022-11-29T23:31:50.189Z,10.93
2022-11-29T23:34:18.882Z,10.68
2022-11-29T23:36:52.680Z,11.03
2022-11-29T23:39:22.249Z,12.20
2022-11-29T23:41:50.946Z,9.95
2022-11-29T23:44:19.861Z,10.23
2022-11-29T23:46:48.557Z,9.53
2022-11-29T23:49:17.425Z,12.20
2022-11-29T23:51:46.059Z,10.35
2022-11-29T23:54:14.925Z,10.73
2022-11-29T23:56:43.650Z,10.95
2022-11-29T23:59:12.497Z,9.57
